Terminal Aerodrome Forecast
Issued by NWS Wilmington, NC

Current Version | Previous Version | Graphics & Text | Print | Product List | Glossary Off
Versions: 1 2 3 4 5 6 7 8 9 10 11 12 13 14 15

000
FTUS42 KILM 310522
TAFFLO
TAF
KFLO 310522Z 3106/0106 VRB05KT P6SM SCT050 SCT250
     FM311500 21009KT P6SM SCT250
     FM311800 24014G23KT P6SM FEW050 SCT250
     FM312300 23006KT P6SM SCT100 BKN250=

USA.gov is the U.S. government's official web portal to all federal, state and local government web resources and services.